createdAt,value
2018-08-10T00:00:59.795Z,0.00
2018-08-10T00:01:59.786Z,0.00
2018-08-10T00:02:59.764Z,0.00
2018-08-10T00:03:59.744Z,0.00
2018-08-10T00:04:59.735Z,0.00
2018-08-10T00:05:59.723Z,0.00
2018-08-10T00:06:59.712Z,0.00
2018-08-10T00:07:59.689Z,0.00
2018-08-10T00:08:59.737Z,0.00
2018-08-10T00:09:59.675Z,0.00
2018-08-10T00:10:59.664Z,0.00
2018-08-10T00:11:59.642Z,0.00
2018-08-10T00:12:59.642Z,0.00
2018-08-10T00:13:59.620Z,0.00
2018-08-10T00:14:59.624Z,0.00
2018-08-10T00:15:59.593Z,0.00
2018-08-10T00:16:59.613Z,0.00
2018-08-10T00:17:59.569Z,0.00
2018-08-10T00:18:59.546Z,0.00
2018-08-10T00:19:59.540Z,0.00
2018-08-10T00:20:59.527Z,0.00
2018-08-10T00:21:59.511Z,0.00
2018-08-10T00:22:59.504Z,0.00
2018-08-10T00:23:59.501Z,0.00
2018-08-10T00:24:59.469Z,0.00
2018-08-10T00:25:59.465Z,0.00
2018-08-10T00:26:59.441Z,0.00
2018-08-10T00:27:59.447Z,0.00
2018-08-10T00:28:59.445Z,0.00
2018-08-10T00:29:59.409Z,0.00
2018-08-10T00:30:59.387Z,0.00
2018-08-10T00:31:59.373Z,0.00
2018-08-10T00:32:59.366Z,0.00
2018-08-10T00:34:02.094Z,0.00
2018-08-10T00:34:59.332Z,0.00
2018-08-10T00:35:59.310Z,0.00
2018-08-10T00:36:59.297Z,0.00
2018-08-10T00:37:59.295Z,0.00
2018-08-10T00:38:59.278Z,0.00
2018-08-10T00:39:59.268Z,0.00
2018-08-10T00:40:59.246Z,0.00
2018-08-10T00:41:59.233Z,0.00
2018-08-10T00:42:59.233Z,0.00
2018-08-10T00:43:59.208Z,0.00
2018-08-10T00:44:59.195Z,0.00
2018-08-10T00:45:59.175Z,0.00
2018-08-10T00:46:59.175Z,0.00
2018-08-10T00:47:59.158Z,0.00
2018-08-10T00:48:59.133Z,0.00
2018-08-10T00:49:59.122Z,0.00
2018-08-10T00:50:59.107Z,0.00
2018-08-10T00:51:59.107Z,0.00
2018-08-10T00:52:59.086Z,0.00
2018-08-10T00:53:59.068Z,0.00
2018-08-10T00:54:59.059Z,0.00
2018-08-10T00:55:59.043Z,0.00
2018-08-10T00:56:59.023Z,0.00
2018-08-10T00:57:59.014Z,0.00
2018-08-10T00:58:59.001Z,0.00
2018-08-10T00:59:58.983Z,0.00
2018-08-10T01:00:58.973Z,0.00
2018-08-10T01:01:58.960Z,0.00
2018-08-10T01:02:58.948Z,0.00
2018-08-10T01:03:58.936Z,0.00
2018-08-10T01:04:58.919Z,0.00
2018-08-10T01:05:58.903Z,0.00
2018-08-10T01:06:58.890Z,0.00
2018-08-10T01:07:58.880Z,0.00
2018-08-10T01:08:58.867Z,0.00
2018-08-10T01:09:58.851Z,0.00
2018-08-10T01:10:58.846Z,0.00
2018-08-10T01:11:58.826Z,0.00
2018-08-10T01:12:58.855Z,0.00
2018-08-10T01:13:58.800Z,0.00
2018-08-10T01:14:58.783Z,0.00
2018-08-10T01:15:58.771Z,0.00
2018-08-10T01:16:58.754Z,0.00
2018-08-10T01:17:58.739Z,0.00
2018-08-10T01:18:58.730Z,0.00
2018-08-10T01:19:58.713Z,0.00
2018-08-10T01:20:58.691Z,0.00
2018-08-10T01:21:58.684Z,0.00
2018-08-10T01:22:58.663Z,0.00
2018-08-10T01:23:58.665Z,0.00
2018-08-10T01:24:58.636Z,0.00
2018-08-10T01:25:58.630Z,0.00
2018-08-10T01:26:58.611Z,0.00
2018-08-10T01:27:58.594Z,0.00
2018-08-10T01:28:58.652Z,0.00
2018-08-10T01:29:58.567Z,0.00
2018-08-10T01:30:58.548Z,0.00
2018-08-10T01:31:58.538Z,0.00
2018-08-10T01:32:58.522Z,0.00
2018-08-10T01:33:58.519Z,0.00
2018-08-10T01:34:58.505Z,0.00
2018-08-10T01:35:58.488Z,0.00
2018-08-10T01:36:58.471Z,0.00
2018-08-10T01:37:58.452Z,0.00
2018-08-10T01:38:58.440Z,0.00
2018-08-10T01:39:58.423Z,0.00
2018-08-10T01:40:58.405Z,0.00
2018-08-10T01:41:58.398Z,0.00
2018-08-10T01:42:58.385Z,0.00
2018-08-10T01:43:58.375Z,0.00
2018-08-10T01:44:58.352Z,0.00
2018-08-10T01:45:58.343Z,0.00
2018-08-10T01:46:58.320Z,0.00
2018-08-10T01:47:58.304Z,0.00
2018-08-10T01:48:58.285Z,0.00
2018-08-10T01:49:58.282Z,0.00
2018-08-10T01:50:58.259Z,0.00
2018-08-10T01:51:58.251Z,0.00
2018-08-10T01:52:58.234Z,0.00
2018-08-10T01:53:58.211Z,0.00
2018-08-10T01:54:58.204Z,0.00
2018-08-10T01:55:58.185Z,0.00
2018-08-10T01:56:58.175Z,0.00
2018-08-10T01:57:58.160Z,0.00
2018-08-10T01:58:58.137Z,0.00
2018-08-10T01:59:58.134Z,0.00
2018-08-10T02:00:58.111Z,0.00
2018-08-10T02:01:58.092Z,0.00
2018-08-10T02:02:58.082Z,0.00
2018-08-10T02:03:58.067Z,0.00
2018-08-10T02:04:58.078Z,0.00
2018-08-10T02:05:58.044Z,0.00
2018-08-10T02:06:58.025Z,0.00
2018-08-10T02:07:58.013Z,0.00
2018-08-10T02:08:58.002Z,0.00
2018-08-10T02:09:57.979Z,0.00
2018-08-10T02:10:57.967Z,0.00
2018-08-10T02:11:57.961Z,0.00
2018-08-10T02:12:57.932Z,0.00
2018-08-10T02:13:57.942Z,0.00
2018-08-10T02:14:57.903Z,0.00
2018-08-10T02:15:57.887Z,0.00
2018-08-10T02:16:57.868Z,0.00
2018-08-10T02:17:57.856Z,0.00
2018-08-10T02:18:57.843Z,0.00
2018-08-10T02:19:57.829Z,0.00
2018-08-10T02:20:57.816Z,0.00
2018-08-10T02:21:57.795Z,0.00
2018-08-10T02:22:57.785Z,0.00
2018-08-10T02:23:57.773Z,0.00
2018-08-10T02:24:57.763Z,0.00
2018-08-10T02:25:57.765Z,0.00
2018-08-10T02:26:57.724Z,0.00
2018-08-10T02:27:57.701Z,0.00
2018-08-10T02:28:57.695Z,0.00
2018-08-10T02:29:57.698Z,0.00
2018-08-10T02:30:57.676Z,0.00
2018-08-10T02:31:57.644Z,0.00
2018-08-10T02:32:57.634Z,0.00
2018-08-10T02:33:57.615Z,0.00
2018-08-10T02:34:57.608Z,0.00
2018-08-10T02:35:57.578Z,0.00
2018-08-10T02:36:57.565Z,0.00
2018-08-10T02:37:57.569Z,0.00
2018-08-10T02:38:57.533Z,0.00
2018-08-10T02:39:57.520Z,0.00
2018-08-10T02:40:57.511Z,0.00
2018-08-10T02:41:57.489Z,0.00
2018-08-10T02:42:57.483Z,0.00
2018-08-10T02:43:57.463Z,0.00
2018-08-10T02:44:57.448Z,0.00
2018-08-10T02:45:57.434Z,0.00
2018-08-10T02:46:57.415Z,0.00
2018-08-10T02:47:57.392Z,0.00
2018-08-10T02:48:57.384Z,0.00
2018-08-10T02:49:57.371Z,0.00
2018-08-10T02:50:57.356Z,0.00
2018-08-10T02:51:57.365Z,0.00
2018-08-10T02:52:57.320Z,0.00
2018-08-10T02:53:57.306Z,0.00
2018-08-10T02:54:57.297Z,0.00
2018-08-10T02:55:57.290Z,0.00
2018-08-10T02:56:57.260Z,0.00
2018-08-10T02:57:57.240Z,0.00
2018-08-10T02:58:57.246Z,0.00
2018-08-10T02:59:57.220Z,0.00
2018-08-10T03:00:57.202Z,0.00
2018-08-10T03:01:57.183Z,0.00
2018-08-10T03:02:57.170Z,0.00
2018-08-10T03:03:57.158Z,0.00
2018-08-10T03:04:57.138Z,0.00
2018-08-10T03:05:57.121Z,0.00
2018-08-10T03:06:57.106Z,0.00
2018-08-10T03:07:57.092Z,0.00
2018-08-10T03:08:57.071Z,0.00
2018-08-10T03:09:57.061Z,0.00
2018-08-10T03:10:57.041Z,0.00
2018-08-10T03:11:57.029Z,0.00
2018-08-10T03:12:57.009Z,0.00
2018-08-10T03:13:56.993Z,0.00
2018-08-10T03:14:56.994Z,0.00
2018-08-10T03:15:56.965Z,0.00
2018-08-10T03:16:56.946Z,0.00
2018-08-10T03:17:56.940Z,0.00
2018-08-10T03:18:56.914Z,0.00
2018-08-10T03:19:56.901Z,0.00
2018-08-10T03:20:56.891Z,0.00
2018-08-10T03:21:56.888Z,0.00
2018-08-10T03:22:56.853Z,0.00
2018-08-10T03:23:56.833Z,0.00
2018-08-10T03:24:56.819Z,0.00
2018-08-10T03:25:56.808Z,0.00
2018-08-10T03:26:56.791Z,0.00
2018-08-10T03:27:56.780Z,0.00
2018-08-10T03:28:56.755Z,0.00
2018-08-10T03:29:56.746Z,0.00
2018-08-10T03:30:56.743Z,0.00
2018-08-10T03:31:56.720Z,0.00
2018-08-10T03:32:56.746Z,4.00
2018-08-10T03:33:56.682Z,4.00
2018-08-10T03:34:56.669Z,4.00
2018-08-10T03:35:56.659Z,0.00
2018-08-10T03:36:56.646Z,4.00
2018-08-10T03:37:56.624Z,4.00
2018-08-10T03:38:56.598Z,4.00
2018-08-10T03:39:56.576Z,8.00
2018-08-10T03:40:56.573Z,4.00
2018-08-10T03:41:56.548Z,8.00
2018-08-10T03:42:56.542Z,12.00
2018-08-10T03:43:56.529Z,12.00
2018-08-10T03:44:56.503Z,12.00
2018-08-10T03:45:56.493Z,12.00
2018-08-10T03:46:56.477Z,16.00
2018-08-10T03:47:56.461Z,16.00
2018-08-10T03:48:56.464Z,20.00
2018-08-10T03:49:56.482Z,24.00
2018-08-10T03:50:56.407Z,28.00
2018-08-10T03:51:56.406Z,36.00
2018-08-10T03:52:56.373Z,40.00
2018-08-10T03:53:56.394Z,44.00
2018-08-10T03:54:56.348Z,52.00
2018-08-10T03:55:56.351Z,56.00
2018-08-10T03:56:56.322Z,64.00
2018-08-10T03:57:56.297Z,72.00
2018-08-10T03:58:56.284Z,76.00
2018-08-10T03:59:56.272Z,84.00
2018-08-10T04:00:56.268Z,96.00
2018-08-10T04:01:56.242Z,104.00
2018-08-10T04:02:56.242Z,116.00
2018-08-10T04:03:56.216Z,128.00
2018-08-10T04:04:56.195Z,136.00
2018-08-10T04:05:56.183Z,152.00
2018-08-10T04:06:56.178Z,164.00
2018-08-10T04:07:56.135Z,180.00
2018-08-10T04:08:56.121Z,196.00
2018-08-10T04:09:56.126Z,216.00
2018-08-10T04:10:56.088Z,236.00
2018-08-10T04:11:56.084Z,256.00
2018-08-10T04:12:56.072Z,288.00
2018-08-10T04:13:56.036Z,336.00
2018-08-10T04:14:56.050Z,384.00
2018-08-10T04:15:56.007Z,444.00
2018-08-10T04:16:56.065Z,480.00
2018-08-10T04:17:55.984Z,528.00
2018-08-10T04:18:55.964Z,568.00
2018-08-10T04:19:55.945Z,608.00
2018-08-10T04:20:55.930Z,664.00
2018-08-10T04:21:55.907Z,720.00
2018-08-10T04:22:55.900Z,780.00
2018-08-10T04:23:55.869Z,836.00
2018-08-10T04:24:55.859Z,892.00
2018-08-10T04:25:55.837Z,932.00
2018-08-10T04:26:55.827Z,968.00
2018-08-10T04:27:55.809Z,1004.00
2018-08-10T04:28:55.795Z,1052.00
2018-08-10T04:29:55.785Z,1116.00
2018-08-10T04:30:55.782Z,1180.00
2018-08-10T04:31:55.753Z,1240.00
2018-08-10T04:32:55.725Z,1312.00
2018-08-10T04:33:55.715Z,1368.00
2018-08-10T04:34:55.718Z,1376.00
2018-08-10T04:35:55.685Z,1356.00
2018-08-10T04:36:55.664Z,1352.00
2018-08-10T04:37:55.645Z,1320.00
2018-08-10T04:38:55.648Z,1288.00
2018-08-10T04:39:55.629Z,1248.00
2018-08-10T04:40:55.589Z,1224.00
2018-08-10T04:41:55.576Z,1204.00
2018-08-10T04:42:55.583Z,1192.00
2018-08-10T04:43:55.545Z,1152.00
2018-08-10T04:44:55.526Z,1124.00
2018-08-10T04:45:55.535Z,1084.00
2018-08-10T04:46:55.494Z,1072.00
2018-08-10T04:47:55.475Z,1056.00
2018-08-10T04:48:55.459Z,1044.00
2018-08-10T04:49:55.446Z,1036.00
2018-08-10T04:50:55.455Z,1020.00
2018-08-10T04:51:55.413Z,1020.00
2018-08-10T04:52:55.391Z,1024.00
2018-08-10T04:53:55.392Z,1040.00
2018-08-10T04:54:55.387Z,1060.00
2018-08-10T04:55:55.381Z,1080.00
2018-08-10T04:56:55.328Z,1108.00
2018-08-10T04:57:55.324Z,1144.00
2018-08-10T04:58:55.295Z,1176.00
2018-08-10T04:59:55.295Z,1224.00
2018-08-10T05:00:55.261Z,1268.00
2018-08-10T05:01:55.244Z,1304.00
2018-08-10T05:02:55.247Z,1340.00
2018-08-10T05:03:55.219Z,1388.00
2018-08-10T05:04:55.191Z,1444.00
2018-08-10T05:05:55.179Z,1524.00
2018-08-10T05:06:55.161Z,1548.00
2018-08-10T05:07:55.269Z,1564.00
2018-08-10T05:08:55.133Z,1584.00
2018-08-10T05:09:55.170Z,1612.00
2018-08-10T05:10:55.098Z,1656.00
2018-08-10T05:11:55.086Z,1672.00
2018-08-10T05:12:55.061Z,1684.00
2018-08-10T05:13:55.047Z,1692.00
2018-08-10T05:14:55.036Z,1708.00
2018-08-10T05:15:55.035Z,1756.00
2018-08-10T05:16:55.004Z,1808.00
2018-08-10T05:17:54.986Z,1840.00
2018-08-10T05:18:54.962Z,1880.00
2018-08-10T05:19:54.981Z,1912.00
2018-08-10T05:20:54.933Z,1948.00
2018-08-10T05:21:54.927Z,1976.00
2018-08-10T05:22:54.936Z,2004.00
2018-08-10T05:23:54.892Z,2028.00
2018-08-10T05:24:54.864Z,2048.00
2018-08-10T05:25:54.901Z,2072.00
2018-08-10T05:26:54.840Z,2100.00
2018-08-10T05:27:54.818Z,2132.00
2018-08-10T05:28:54.796Z,2160.00
2018-08-10T05:29:54.786Z,2196.00
2018-08-10T05:30:54.783Z,2224.00
2018-08-10T05:31:54.783Z,2252.00
2018-08-10T05:32:54.738Z,2280.00
2018-08-10T05:33:54.727Z,2304.00
2018-08-10T05:34:54.782Z,2324.00
2018-08-10T05:35:54.690Z,2348.00
2018-08-10T05:36:54.684Z,2368.00
2018-08-10T05:37:54.645Z,2388.00
2018-08-10T05:38:54.645Z,2412.00
2018-08-10T05:39:54.639Z,2432.00
2018-08-10T05:40:54.614Z,2456.00
2018-08-10T05:41:54.617Z,2476.00
2018-08-10T05:42:54.578Z,2496.00
2018-08-10T05:43:54.616Z,2512.00
2018-08-10T05:44:54.537Z,2532.00
2018-08-10T05:45:54.534Z,2552.00
2018-08-10T05:46:54.554Z,2572.00
2018-08-10T05:47:54.546Z,2592.00
2018-08-10T05:48:54.485Z,2804.00
2018-08-10T05:49:54.472Z,3076.00
2018-08-10T05:50:54.495Z,3136.00
2018-08-10T05:51:54.451Z,3284.00
2018-08-10T05:52:54.428Z,2976.00
2018-08-10T05:53:54.403Z,2832.00
2018-08-10T05:54:54.410Z,2796.00
2018-08-10T05:55:54.369Z,2772.00
2018-08-10T05:56:54.425Z,2784.00
2018-08-10T05:57:54.382Z,2804.00
2018-08-10T05:58:54.321Z,2836.00
2018-08-10T05:59:54.318Z,2868.00
2018-08-10T06:00:54.296Z,2892.00
2018-08-10T06:01:54.289Z,2916.00
2018-08-10T06:02:54.308Z,2956.00
2018-08-10T06:03:54.393Z,3056.00
2018-08-10T06:04:54.244Z,3204.00
2018-08-10T06:05:54.215Z,3568.00
2018-08-10T06:06:54.218Z,5936.00
2018-08-10T06:07:54.194Z,5152.00
2018-08-10T06:08:54.171Z,3348.00
2018-08-10T06:09:54.175Z,3108.00
2018-08-10T06:10:54.145Z,3104.00
2018-08-10T06:11:54.127Z,3120.00
2018-08-10T06:12:54.111Z,3140.00
2018-08-10T06:13:54.089Z,3168.00
2018-08-10T06:14:54.104Z,3188.00
2018-08-10T06:15:54.066Z,3220.00
2018-08-10T06:16:54.047Z,3268.00
2018-08-10T06:17:54.063Z,3280.00
2018-08-10T06:18:54.027Z,3292.00
2018-08-10T06:19:54.028Z,3296.00
2018-08-10T06:20:53.988Z,3320.00
2018-08-10T06:21:53.978Z,3348.00
2018-08-10T06:22:54.000Z,3372.00
2018-08-10T06:23:53.985Z,3384.00
2018-08-10T06:24:53.984Z,3404.00
2018-08-10T06:25:53.924Z,3416.00
2018-08-10T06:26:53.927Z,3432.00
2018-08-10T06:27:53.919Z,3468.00
2018-08-10T06:28:53.883Z,3500.00
2018-08-10T06:29:53.886Z,3556.00
2018-08-10T06:30:53.844Z,3612.00
2018-08-10T06:31:53.867Z,3660.00
2018-08-10T06:32:53.820Z,3732.00
2018-08-10T06:33:53.880Z,3780.00
2018-08-10T06:34:53.815Z,3832.00
2018-08-10T06:35:53.781Z,3860.00
2018-08-10T06:36:53.772Z,3872.00
2018-08-10T06:37:53.773Z,3880.00
2018-08-10T06:38:53.743Z,4184.00
2018-08-10T06:39:53.813Z,3948.00
2018-08-10T06:40:53.708Z,3876.00
2018-08-10T06:41:53.727Z,3820.00
2018-08-10T06:42:53.676Z,3808.00
2018-08-10T06:43:53.666Z,3804.00
2018-08-10T06:44:53.661Z,3800.00
2018-08-10T06:45:53.637Z,3800.00
2018-08-10T06:46:53.615Z,3796.00
2018-08-10T06:47:53.605Z,3792.00
2018-08-10T06:48:53.612Z,3808.00
2018-08-10T06:49:53.582Z,3844.00
2018-08-10T06:50:53.585Z,4016.00
2018-08-10T06:51:53.550Z,4316.00
2018-08-10T06:52:53.534Z,4532.00
2018-08-10T06:53:53.557Z,4164.00
2018-08-10T06:54:53.506Z,4064.00
2018-08-10T06:55:53.564Z,4132.00
2018-08-10T06:56:53.478Z,4104.00
2018-08-10T06:57:53.495Z,4084.00
2018-08-10T06:58:53.504Z,4056.00
2018-08-10T06:59:53.573Z,4172.00
2018-08-10T07:00:53.440Z,4692.00
2018-08-10T07:01:53.409Z,4804.00
2018-08-10T07:02:53.397Z,4540.00
2018-08-10T07:03:53.425Z,4244.00
2018-08-10T07:04:53.370Z,4140.00
2018-08-10T07:05:53.358Z,3960.00
2018-08-10T07:06:53.341Z,3984.00
2018-08-10T07:07:53.415Z,4112.00
2018-08-10T07:08:53.309Z,4076.00
2018-08-10T07:09:53.309Z,3984.00
2018-08-10T07:10:53.288Z,4088.00
2018-08-10T07:11:53.274Z,4124.00
2018-08-10T07:12:53.285Z,4016.00
2018-08-10T07:13:53.251Z,4060.00
2018-08-10T07:14:53.227Z,4096.00
2018-08-10T07:15:53.217Z,4644.00
2018-08-10T07:16:53.239Z,5920.00
2018-08-10T07:17:53.192Z,5296.00
2018-08-10T07:18:53.181Z,4128.00
2018-08-10T07:19:53.187Z,4720.00
2018-08-10T07:20:53.154Z,4072.00
2018-08-10T07:21:53.147Z,3784.00
2018-08-10T07:22:53.133Z,3908.00
2018-08-10T07:23:53.111Z,4908.00
2018-08-10T07:24:53.101Z,4024.00
2018-08-10T07:25:53.089Z,3900.00
2018-08-10T07:26:53.101Z,4252.00
2018-08-10T07:27:53.084Z,5492.00
2018-08-10T07:28:53.059Z,5568.00
2018-08-10T07:29:53.034Z,5336.00
2018-08-10T07:30:53.022Z,5572.00
2018-08-10T07:31:53.012Z,5224.00
2018-08-10T07:32:53.019Z,5160.00
2018-08-10T07:33:52.983Z,4780.00
2018-08-10T07:34:52.973Z,4476.00
2018-08-10T07:35:52.965Z,4140.00
2018-08-10T07:36:52.947Z,3976.00
2018-08-10T07:37:52.941Z,4856.00
2018-08-10T07:38:52.929Z,4920.00
2018-08-10T07:39:52.906Z,4396.00
2018-08-10T07:40:52.904Z,5228.00
2018-08-10T07:41:52.887Z,5104.00
2018-08-10T07:42:52.873Z,5020.00
2018-08-10T07:43:52.864Z,4824.00
2018-08-10T07:44:52.851Z,5148.00
2018-08-10T07:45:52.842Z,5244.00
2018-08-10T07:46:52.836Z,5548.00
2018-08-10T07:47:52.811Z,5696.00
2018-08-10T07:48:52.805Z,5636.00
2018-08-10T07:49:52.804Z,5548.00
2018-08-10T07:50:52.803Z,5628.00
2018-08-10T07:51:52.768Z,5652.00
2018-08-10T07:52:52.771Z,5724.00
2018-08-10T07:53:52.745Z,5744.00
2018-08-10T07:54:52.735Z,5708.00
2018-08-10T07:55:52.731Z,5788.00
2018-08-10T07:56:52.707Z,5956.00
2018-08-10T07:57:52.704Z,6300.00
2018-08-10T07:58:52.695Z,6400.00
2018-08-10T07:59:52.685Z,6832.00
2018-08-10T08:00:52.688Z,7284.00
2018-08-10T08:01:52.697Z,7016.00
2018-08-10T08:02:52.645Z,6400.00
2018-08-10T08:03:52.639Z,6000.00
2018-08-10T08:04:52.624Z,6284.00
2018-08-10T08:05:52.624Z,6224.00
2018-08-10T08:06:52.656Z,5916.00
2018-08-10T08:07:52.613Z,5600.00
2018-08-10T08:08:52.607Z,5396.00
2018-08-10T08:09:52.594Z,5344.00
2018-08-10T08:10:52.573Z,5428.00
2018-08-10T08:11:52.573Z,5496.00
2018-08-10T08:12:52.592Z,5572.00
2018-08-10T08:13:52.560Z,5680.00
2018-08-10T08:14:52.551Z,5720.00
2018-08-10T08:15:52.544Z,5736.00
2018-08-10T08:16:52.539Z,5740.00
2018-08-10T08:17:52.549Z,5772.00
2018-08-10T08:18:52.519Z,5804.00
2018-08-10T08:19:52.593Z,5880.00
2018-08-10T08:20:52.500Z,6004.00
2018-08-10T08:21:53.214Z,6376.00
2018-08-10T08:22:52.483Z,7008.00
2018-08-10T08:23:52.475Z,8192.00
2018-08-10T08:24:52.461Z,9292.00
2018-08-10T08:25:52.458Z,8780.00
2018-08-10T08:26:52.458Z,7728.00
2018-08-10T08:27:52.467Z,7444.00
2018-08-10T08:28:52.433Z,7600.00
2018-08-10T08:29:52.426Z,7728.00
2018-08-10T08:30:52.426Z,7960.00
2018-08-10T08:31:52.454Z,8496.00
2018-08-10T08:32:52.410Z,8580.00
2018-08-10T08:33:52.409Z,8152.00
2018-08-10T08:34:52.550Z,7904.00
2018-08-10T08:35:52.382Z,7956.00
2018-08-10T08:36:52.432Z,8248.00
2018-08-10T08:37:52.388Z,8452.00
2018-08-10T08:38:52.359Z,8664.00
2018-08-10T08:39:52.350Z,8868.00
2018-08-10T08:40:52.375Z,9056.00
2018-08-10T08:41:52.337Z,9264.00
2018-08-10T08:42:52.337Z,9816.00
2018-08-10T08:43:52.324Z,10872.00
2018-08-10T08:44:52.321Z,11588.00
2018-08-10T08:45:52.502Z,11604.00
2018-08-10T08:46:52.305Z,12212.00
2018-08-10T08:47:52.299Z,13640.00
2018-08-10T08:48:52.289Z,14368.00
2018-08-10T08:49:52.320Z,14536.00
2018-08-10T08:50:52.266Z,15196.00
2018-08-10T08:51:52.323Z,16208.00
2018-08-10T08:52:52.257Z,16504.00
2018-08-10T08:53:52.283Z,19360.00
2018-08-10T08:54:52.260Z,20608.00
2018-08-10T08:55:52.244Z,22080.00
2018-08-10T08:56:52.231Z,22976.00
2018-08-10T08:57:52.222Z,23968.00
2018-08-10T08:58:52.228Z,18464.00
2018-08-10T08:59:52.214Z,22592.00
2018-08-10T09:00:52.209Z,28448.00
2018-08-10T09:01:52.212Z,30272.00
2018-08-10T09:02:52.218Z,16892.00
2018-08-10T09:03:52.212Z,13404.00
2018-08-10T09:04:52.181Z,13140.00
2018-08-10T09:05:52.170Z,15188.00
2018-08-10T09:06:52.169Z,20064.00
2018-08-10T09:07:52.175Z,79104.00
2018-08-10T09:08:52.165Z,107232.00
2018-08-10T09:09:52.149Z,110528.00
2018-08-10T09:10:52.152Z,26976.00
2018-08-10T09:11:52.130Z,26016.00
2018-08-10T09:12:52.139Z,106144.00
2018-08-10T09:13:52.126Z,65216.00
2018-08-10T09:14:52.107Z,18880.00
2018-08-10T09:15:52.133Z,20448.00
2018-08-10T09:16:52.104Z,106912.00
2018-08-10T09:17:52.097Z,109856.00
2018-08-10T09:18:52.084Z,40192.00
2018-08-10T09:19:52.077Z,23328.00
2018-08-10T09:20:52.081Z,104384.00
2018-08-10T09:21:52.069Z,95968.00
2018-08-10T09:22:52.065Z,104640.00
2018-08-10T09:23:52.074Z,99136.00
2018-08-10T09:24:52.049Z,15420.00
2018-08-10T09:25:52.052Z,15328.00
2018-08-10T09:26:52.104Z,20160.00
2018-08-10T09:27:52.033Z,78048.00
2018-08-10T09:28:52.017Z,117792.00
2018-08-10T09:29:52.031Z,21856.00
2018-08-10T09:30:51.998Z,20992.00
2018-08-10T09:31:51.998Z,21504.00
2018-08-10T09:32:51.990Z,19136.00
2018-08-10T09:33:52.010Z,18304.00
2018-08-10T09:34:51.977Z,18048.00
2018-08-10T09:35:51.974Z,21344.00
2018-08-10T09:36:51.967Z,23072.00
2018-08-10T09:37:51.951Z,116448.00
2018-08-10T09:38:51.949Z,112416.00
2018-08-10T09:39:51.937Z,115392.00
2018-08-10T09:40:51.930Z,112096.00
2018-08-10T09:41:51.919Z,14676.00
2018-08-10T09:42:51.919Z,16668.00
2018-08-10T09:43:51.916Z,102720.00
2018-08-10T09:44:51.894Z,100416.00
2018-08-10T09:45:51.897Z,101792.00
2018-08-10T09:46:51.881Z,101600.00
2018-08-10T09:47:51.890Z,102496.00
2018-08-10T09:48:51.868Z,104480.00
2018-08-10T09:49:51.855Z,106688.00
2018-08-10T09:50:51.849Z,114464.00
2018-08-10T09:51:51.866Z,112672.00
2018-08-10T09:52:51.840Z,42656.00
2018-08-10T09:53:51.839Z,14576.00
2018-08-10T09:54:51.817Z,14800.00
2018-08-10T09:55:51.817Z,18092.00
2018-08-10T09:56:51.802Z,41664.00
2018-08-10T09:57:51.830Z,110368.00
2018-08-10T09:58:51.795Z,109376.00
2018-08-10T09:59:51.863Z,24608.00
2018-08-10T10:00:51.773Z,115904.00
2018-08-10T10:01:51.769Z,113664.00
2018-08-10T10:02:51.757Z,117344.00
2018-08-10T10:03:51.753Z,29792.00
2018-08-10T10:04:51.747Z,24288.00
2018-08-10T10:05:52.256Z,25600.00
2018-08-10T10:06:51.724Z,20480.00
2018-08-10T10:07:51.725Z,17028.00
2018-08-10T10:08:51.734Z,14456.00
2018-08-10T10:09:51.712Z,114592.00
2018-08-10T10:10:51.711Z,111904.00
2018-08-10T10:11:51.702Z,111040.00
2018-08-10T10:12:51.695Z,110048.00
2018-08-10T10:13:51.679Z,109216.00
2018-08-10T10:14:51.680Z,79712.00
2018-08-10T10:15:51.667Z,114464.00
2018-08-10T10:16:51.661Z,112704.00
2018-08-10T10:17:51.654Z,81248.00
2018-08-10T10:18:51.648Z,113312.00
2018-08-10T10:19:51.641Z,117216.00
2018-08-10T10:20:51.640Z,120416.00
2018-08-10T10:21:51.628Z,122400.00
2018-08-10T10:22:51.626Z,122144.00
2018-08-10T10:23:51.622Z,121888.00
2018-08-10T10:24:51.616Z,119488.00
2018-08-10T10:25:51.616Z,123488.00
2018-08-10T10:26:51.609Z,56672.00
2018-08-10T10:27:51.596Z,20000.00
2018-08-10T10:28:51.592Z,15236.00
2018-08-10T10:29:51.586Z,15296.00
2018-08-10T10:30:51.579Z,17152.00
2018-08-10T10:31:51.586Z,21760.00
2018-08-10T10:32:51.573Z,100544.00
2018-08-10T10:33:51.564Z,100096.00
2018-08-10T10:34:51.560Z,42144.00
2018-08-10T10:35:51.560Z,30304.00
2018-08-10T10:36:51.547Z,27136.00
2018-08-10T10:37:51.554Z,23360.00
2018-08-10T10:38:51.540Z,18112.00
2018-08-10T10:39:51.532Z,15140.00
2018-08-10T10:40:51.532Z,12644.00
2018-08-10T10:41:51.522Z,11592.00
2018-08-10T10:42:51.520Z,12152.00
2018-08-10T10:43:51.509Z,13752.00
2018-08-10T10:44:51.503Z,15776.00
2018-08-10T10:45:51.496Z,17536.00
2018-08-10T10:46:51.490Z,20064.00
2018-08-10T10:47:51.484Z,19744.00
2018-08-10T10:48:51.474Z,65088.00
2018-08-10T10:49:51.468Z,79360.00
2018-08-10T10:50:51.477Z,25536.00
2018-08-10T10:51:51.458Z,20000.00
2018-08-10T10:52:51.452Z,118144.00
2018-08-10T10:53:51.440Z,120992.00
2018-08-10T10:54:51.443Z,130528.00
2018-08-10T10:55:51.432Z,135360.00
2018-08-10T10:56:51.486Z,73376.00
2018-08-10T10:57:51.424Z,97440.00
2018-08-10T10:58:51.411Z,70176.00
2018-08-10T10:59:51.401Z,128128.00
2018-08-10T11:00:51.397Z,129536.00
2018-08-10T11:01:51.397Z,128832.00
2018-08-10T11:02:51.392Z,26496.00
2018-08-10T11:03:51.393Z,24000.00
2018-08-10T11:04:51.385Z,19296.00
2018-08-10T11:05:51.370Z,17280.00
2018-08-10T11:06:51.373Z,15832.00
2018-08-10T11:07:51.363Z,35872.00
2018-08-10T11:08:51.357Z,62016.00
2018-08-10T11:09:51.351Z,125504.00
2018-08-10T11:10:51.348Z,121920.00
2018-08-10T11:11:51.348Z,89280.00
2018-08-10T11:12:51.338Z,132928.00
2018-08-10T11:13:51.344Z,128640.00
2018-08-10T11:14:51.331Z,120704.00
2018-08-10T11:15:51.328Z,114112.00
2018-08-10T11:16:51.331Z,30432.00
2018-08-10T11:17:51.325Z,119232.00
2018-08-10T11:18:51.322Z,118880.00
2018-08-10T11:19:51.316Z,120928.00
2018-08-10T11:20:51.309Z,119232.00
2018-08-10T11:21:51.309Z,120992.00
2018-08-10T11:22:51.307Z,74080.00
2018-08-10T11:23:51.320Z,75296.00
2018-08-10T11:24:51.303Z,21888.00
2018-08-10T11:25:51.404Z,60736.00
2018-08-10T11:26:51.300Z,24736.00
2018-08-10T11:27:51.296Z,17636.00
2018-08-10T11:28:51.293Z,19168.00
2018-08-10T11:29:51.293Z,125312.00
2018-08-10T11:30:51.289Z,63456.00
2018-08-10T11:31:51.299Z,44704.00
2018-08-10T11:32:51.280Z,24096.00
2018-08-10T11:33:51.277Z,14760.00
2018-08-10T11:34:51.274Z,15032.00
2018-08-10T11:35:51.270Z,15588.00
2018-08-10T11:36:51.267Z,16232.00
2018-08-10T11:37:51.267Z,23008.00
2018-08-10T11:38:51.258Z,133216.00
2018-08-10T11:39:51.255Z,133376.00
2018-08-10T11:40:51.257Z,22848.00
2018-08-10T11:41:51.242Z,127616.00
2018-08-10T11:42:51.238Z,123104.00
2018-08-10T11:43:51.235Z,123552.00
2018-08-10T11:44:51.279Z,119872.00
2018-08-10T11:45:51.223Z,118432.00
2018-08-10T11:46:51.226Z,118048.00
2018-08-10T11:47:51.223Z,119200.00
2018-08-10T11:48:51.232Z,118432.00
2018-08-10T11:49:51.216Z,119264.00
2018-08-10T11:50:51.221Z,121216.00
2018-08-10T11:51:51.213Z,122528.00
2018-08-10T11:52:51.226Z,121952.00
2018-08-10T11:53:51.210Z,121440.00
2018-08-10T11:54:51.216Z,123232.00
2018-08-10T11:55:51.217Z,125088.00
2018-08-10T11:56:51.216Z,11956.00
2018-08-10T11:57:51.217Z,27488.00
2018-08-10T11:58:51.215Z,15144.00
2018-08-10T11:59:51.255Z,20224.00
2018-08-10T12:00:51.217Z,112928.00
2018-08-10T12:01:51.245Z,110464.00
2018-08-10T12:02:51.230Z,20448.00
2018-08-10T12:03:51.210Z,15144.00
2018-08-10T12:04:51.207Z,112288.00
2018-08-10T12:05:51.235Z,114432.00
2018-08-10T12:06:51.210Z,112096.00
2018-08-10T12:07:51.367Z,28064.00
2018-08-10T12:08:51.207Z,111008.00
2018-08-10T12:09:51.223Z,113568.00
2018-08-10T12:10:51.204Z,118816.00
2018-08-10T12:11:51.204Z,125120.00
2018-08-10T12:12:51.240Z,132032.00
2018-08-10T12:13:51.207Z,152544.00
2018-08-10T12:14:51.213Z,145280.00
2018-08-10T12:15:51.213Z,16132.00
2018-08-10T12:16:51.203Z,60000.00
2018-08-10T12:17:51.207Z,43584.00
2018-08-10T12:18:51.215Z,42048.00